Portada
METAR-TAF:

METAR-TAF

Aeroports :

Port Moresby, Papua Nova Guinea

latitud: 09-26S, longitud: 147-13E, altitud: 38 m

Observació

L'informe es va fer fa 1 hora i 38 minuts, a les 02:00 UTC
Vent 10 kt del Sud-Est
Temperatura 31°C
Humitat 66%
Pressió 1011 hPa
Visibilitat 10 km o més
Núvols disperses a una alçada de 3000 ft
Núvols disperses a una alçada de 5000 ft
calitja

METAR: AYPY 180200Z 13010KT 9999 HZ SCT030 SCT050 31/24 Q1011 RMKS: BUPS IN AREA

Hora: 13:38 (03:38 UTC)

Pronòstic

L'informe es va fer fa 11 hores i 38 minuts, a les 16:00 UTC
Pronòstic vàlid del 17 a les 18 UTC al 18 a les 18 UTC
Vent 6 kt del Sud
Visibilitat 10 km o més
Cel ennuvolat a una alçada de 3500 ft
A partir de les 17 a les 2100 UTC
Vent 10 kt del Sud/Sud-Est
Visibilitat 10 km o més
Núvols disperses a una alçada de 1800 ft
Núvols disperses a una alçada de 14000 ft

TAF: AYPY 171600Z 1718/1818 17006KT 9999 BKN035 FM172100 15010KT 9999 SCT018 SCT140

Observacions i pronòstics meteorològics de més de 4000 aeroports (METAR i TAF).

Les estacions disponibles són els punts grocs i vermells al mapa.

Posi el ratolí al punt desitjat per veure el nom de l'estació.

Feu clic per veure les observacions i els pronòstics meteorològics.

Per canviar el mapa: feu clic els botons verds amb una creu de color negre per apropar; al botó verd amb un guió per allunyar la imatge; o en les fletxes verdes per a mapes adjacents.


METAR-TAF: